Fairfield, Alabama
Current Conditions -  °F | °C
As of 4:53 AM on Thursday 23 Oct 2014 (Local Time) from KBHM Reporting Station
Clear Clear  
Wind Chill: 44°   Ceiling: Unl
Heat Index: 44°   Visibility: 10mi
Dew Point: 41°   Wind: 3mph
Humidity: 89%   Direction: 340°NNW
Pressure: 30.16"   Gusts: NA
Location:  33.49°N, 86.91°W
Report Text: KBHM 230953Z 34003KT 10SM CLR 07/05 A3016 RMK AO2 SLP212 T00670050
Loading
Personal Weather Stations






























Interactive Weather Map
Tropical Storm Tracking
New forecast layout! Learn more

10-Day Weather Forecast

Advertisements
Track Severe Weather on mobile